HK36E SPJC-SPZO
Flight info
| Callsign | HK36E |
|---|---|
| Flight time | 1h 30m |
| Altitude | 30000 |
| Route | LIMA 5F JCL LPA AND ZCO |
| Aircraft | BE20/M-SDFGRWY/LB1 |
Departure
| Time | 2026-05-04 13:40 |
|---|---|
| Airport | Jorge Chávez International Airport (SPJC) |
Arrival
| Time | 2026-05-04 15:10 |
|---|---|
| Airport | Alejandro Velasco Astete International Airport (SPZO) |
| Time | Latitude | Longitude | Altitude | Speed | Heading |
|---|---|---|---|---|---|
| 2026-05-04 13:32 | -12.00935 | -77.11608 | 24 ft | 0 kts | 63° |
| 2026-05-04 13:35 | -12.00935 | -77.11605 | 41 ft | 2 kts | 89° |
| 2026-05-04 13:36 | -12.00954 | -77.11627 | 41 ft | 8 kts | 251° |
| 2026-05-04 13:36 | -12.00976 | -77.11690 | 40 ft | 14 kts | 246° |
| 2026-05-04 13:36 | -12.01012 | -77.11759 | 40 ft | 10 kts | 243° |
| 2026-05-04 13:36 | -12.00982 | -77.11817 | 38 ft | 16 kts | 331° |
| 2026-05-04 13:37 | -12.00888 | -77.11862 | 36 ft | 8 kts | 336° |
| 2026-05-04 13:37 | -12.00811 | -77.11898 | 34 ft | 18 kts | 334° |
| 2026-05-04 13:37 | -12.00709 | -77.11950 | 32 ft | 9 kts | 322° |
| 2026-05-04 13:37 | -12.00678 | -77.11989 | 32 ft | 14 kts | 288° |
| 2026-05-04 13:38 | -12.00692 | -77.12057 | 31 ft | 0 kts | 245° |
| 2026-05-04 13:38 | -12.00700 | -77.12071 | 30 ft | 7 kts | 239° |
| 2026-05-04 13:38 | -12.00780 | -77.12108 | 30 ft | 19 kts | 181° |
| 2026-05-04 13:39 | -12.00940 | -77.12046 | 32 ft | 34 kts | 155° |
| 2026-05-04 13:39 | -12.01374 | -77.11835 | 45 ft | 102 kts | 153° |
| 2026-05-04 13:39 | -12.02153 | -77.11444 | 228 ft | 140 kts | 154° |
| 2026-05-04 13:39 | -12.03055 | -77.10978 | 707 ft | 158 kts | 155° |
| 2026-05-04 13:40 | -12.04065 | -77.10500 | 1438 ft | 158 kts | 155° |
| 2026-05-04 13:40 | -12.05043 | -77.10023 | 2180 ft | 154 kts | 154° |
| 2026-05-04 13:40 | -12.06024 | -77.09539 | 2807 ft | 159 kts | 154° |
| 2026-05-04 13:40 | -12.07036 | -77.09040 | 3439 ft | 163 kts | 154° |
| 2026-05-04 13:41 | -12.08062 | -77.08533 | 4086 ft | 165 kts | 154° |
| 2026-05-04 13:41 | -12.09103 | -77.08019 | 4733 ft | 167 kts | 154° |
| 2026-05-04 13:41 | -12.10156 | -77.07499 | 5369 ft | 169 kts | 154° |
| 2026-05-04 13:42 | -12.12327 | -77.06429 | 6587 ft | 175 kts | 155° |
| 2026-05-04 13:42 | -12.13506 | -77.06248 | 7170 ft | 174 kts | 197° |
| 2026-05-04 13:42 | -12.14463 | -77.06917 | 7774 ft | 171 kts | 238° |
| 2026-05-04 13:42 | -12.14851 | -77.08054 | 8360 ft | 172 kts | 259° |
| 2026-05-04 13:43 | -12.15094 | -77.09256 | 8986 ft | 174 kts | 259° |
| 2026-05-04 13:43 | -12.15339 | -77.10469 | 9626 ft | 175 kts | 258° |
| 2026-05-04 13:43 | -12.15593 | -77.11697 | 10220 ft | 178 kts | 258° |
| 2026-05-04 13:43 | -12.15852 | -77.12941 | 10793 ft | 180 kts | 258° |
| 2026-05-04 13:44 | -12.16115 | -77.14201 | 11395 ft | 181 kts | 257° |
| 2026-05-04 13:44 | -12.16378 | -77.15465 | 12004 ft | 183 kts | 257° |
| 2026-05-04 13:44 | -12.16643 | -77.16736 | 12610 ft | 183 kts | 257° |
| 2026-05-04 13:44 | -12.16910 | -77.18017 | 13141 ft | 186 kts | 257° |
| 2026-05-04 13:45 | -12.17319 | -77.19251 | 13659 ft | 184 kts | 231° |
| 2026-05-04 13:45 | -12.18298 | -77.20070 | 14109 ft | 184 kts | 210° |
| 2026-05-04 13:45 | -12.19392 | -77.20741 | 14587 ft | 184 kts | 209° |
| 2026-05-04 13:45 | -12.20482 | -77.21439 | 15041 ft | 186 kts | 211° |
| 2026-05-04 13:46 | -12.21570 | -77.22149 | 15525 ft | 185 kts | 205° |
| 2026-05-04 13:46 | -12.22800 | -77.22333 | 15960 ft | 179 kts | 161° |
| 2026-05-04 13:46 | -12.23764 | -77.21619 | 16443 ft | 173 kts | 118° |
| 2026-05-04 13:46 | -12.24056 | -77.20434 | 16836 ft | 175 kts | 88° |
| 2026-05-04 13:47 | -12.23727 | -77.19234 | 17241 ft | 179 kts | 65° |
| 2026-05-04 13:47 | -12.23349 | -77.18476 | 17504 ft | 182 kts | 64° |
| 2026-05-04 13:47 | -12.22767 | -77.17310 | 17900 ft | 186 kts | 66° |
| 2026-05-04 13:47 | -12.22237 | -77.16092 | 18293 ft | 189 kts | 68° |
| 2026-05-04 13:48 | -12.21726 | -77.14842 | 18631 ft | 192 kts | 68° |
| 2026-05-04 13:48 | -12.21038 | -77.13162 | 19090 ft | 195 kts | 68° |
| 2026-05-04 13:48 | -12.20514 | -77.11891 | 19420 ft | 197 kts | 68° |
| 2026-05-04 13:48 | -12.20155 | -77.11021 | 19652 ft | 198 kts | 68° |
| 2026-05-04 13:49 | -12.19619 | -77.09720 | 19999 ft | 199 kts | 68° |
| 2026-05-04 13:49 | -12.19078 | -77.08410 | 20350 ft | 202 kts | 68° |
| 2026-05-04 13:49 | -12.18523 | -77.07063 | 20714 ft | 209 kts | 68° |
| 2026-05-04 13:49 | -12.17950 | -77.05673 | 21085 ft | 215 kts | 68° |
| 2026-05-04 13:50 | -12.17364 | -77.04251 | 21458 ft | 219 kts | 68° |
| 2026-05-04 13:50 | -12.16774 | -77.02822 | 21827 ft | 223 kts | 68° |
| 2026-05-04 13:50 | -12.16191 | -77.01351 | 22208 ft | 224 kts | 73° |
| 2026-05-04 13:50 | -12.16008 | -76.99773 | 22588 ft | 225 kts | 94° |
| 2026-05-04 13:51 | -12.16356 | -76.98213 | 22976 ft | 227 kts | 113° |
| 2026-05-04 13:51 | -12.17003 | -76.96743 | 23373 ft | 227 kts | 114° |
| 2026-05-04 13:51 | -12.17652 | -76.95267 | 23725 ft | 228 kts | 113° |
| 2026-05-04 13:51 | -12.18304 | -76.93783 | 24056 ft | 230 kts | 113° |
| 2026-05-04 13:52 | -12.19626 | -76.90771 | 24720 ft | 234 kts | 113° |
| 2026-05-04 13:52 | -12.20296 | -76.89247 | 25053 ft | 236 kts | 113° |
| 2026-05-04 13:52 | -12.20967 | -76.87718 | 25388 ft | 236 kts | 112° |
| 2026-05-04 13:53 | -12.21641 | -76.86184 | 25730 ft | 237 kts | 112° |
| 2026-05-04 13:53 | -12.22315 | -76.84649 | 26080 ft | 237 kts | 112° |
| 2026-05-04 13:53 | -12.22990 | -76.83110 | 26427 ft | 237 kts | 112° |
| 2026-05-04 13:54 | -12.24338 | -76.80038 | 27141 ft | 236 kts | 112° |
| 2026-05-04 13:54 | -12.25009 | -76.78507 | 27515 ft | 236 kts | 112° |
| 2026-05-04 13:54 | -12.26348 | -76.75455 | 28243 ft | 234 kts | 111° |
| 2026-05-04 13:55 | -12.27004 | -76.73960 | 28606 ft | 233 kts | 111° |
| 2026-05-04 13:55 | -12.28326 | -76.70943 | 29365 ft | 231 kts | 111° |
| 2026-05-04 13:55 | -12.28992 | -76.69425 | 29759 ft | 230 kts | 111° |
| 2026-05-04 13:56 | -12.29638 | -76.67946 | 30025 ft | 236 kts | 111° |
| 2026-05-04 13:56 | -12.30329 | -76.66365 | 30035 ft | 250 kts | 111° |
| 2026-05-04 13:56 | -12.31816 | -76.62971 | 30069 ft | 271 kts | 111° |
| 2026-05-04 13:57 | -12.32599 | -76.61185 | 30062 ft | 279 kts | 111° |
| 2026-05-04 13:57 | -12.33399 | -76.59359 | 30066 ft | 284 kts | 111° |
| 2026-05-04 13:58 | -12.35861 | -76.53731 | 30067 ft | 293 kts | 111° |
| 2026-05-04 13:58 | -12.37535 | -76.49905 | 30102 ft | 296 kts | 111° |
| 2026-05-04 13:58 | -12.38376 | -76.47980 | 30096 ft | 297 kts | 111° |
| 2026-05-04 13:59 | -12.39219 | -76.46051 | 30100 ft | 298 kts | 111° |
| 2026-05-04 13:59 | -12.40064 | -76.44117 | 30101 ft | 298 kts | 111° |
| 2026-05-04 13:59 | -12.41755 | -76.40246 | 30102 ft | 298 kts | 111° |
| 2026-05-04 14:00 | -12.42600 | -76.38310 | 30080 ft | 299 kts | 112° |
| 2026-05-04 14:00 | -12.44298 | -76.34420 | 30116 ft | 300 kts | 111° |
| 2026-05-04 14:00 | -12.45149 | -76.32470 | 30117 ft | 300 kts | 112° |
| 2026-05-04 14:01 | -12.46001 | -76.30518 | 30118 ft | 300 kts | 111° |
| 2026-05-04 14:01 | -12.46851 | -76.28567 | 30118 ft | 300 kts | 112° |
| 2026-05-04 14:02 | -12.49403 | -76.22714 | 30111 ft | 300 kts | 111° |
| 2026-05-04 14:02 | -12.50251 | -76.20768 | 30162 ft | 300 kts | 111° |
| 2026-05-04 14:02 | -12.51100 | -76.18820 | 30162 ft | 300 kts | 111° |
| 2026-05-04 14:02 | -12.51950 | -76.16867 | 30160 ft | 300 kts | 111° |
| 2026-05-04 14:03 | -12.52800 | -76.14914 | 30162 ft | 300 kts | 111° |
| 2026-05-04 14:03 | -12.53649 | -76.12965 | 30163 ft | 300 kts | 111° |
| 2026-05-04 14:03 | -12.54498 | -76.11014 | 30165 ft | 300 kts | 111° |
| 2026-05-04 14:03 | -12.55347 | -76.09064 | 30119 ft | 300 kts | 111° |
| 2026-05-04 14:04 | -12.57044 | -76.05160 | 30166 ft | 300 kts | 111° |
| 2026-05-04 14:04 | -12.57893 | -76.03208 | 30166 ft | 300 kts | 111° |
| 2026-05-04 14:04 | -12.58738 | -76.01267 | 30162 ft | 298 kts | 111° |
| 2026-05-04 14:05 | -12.60415 | -75.97406 | 30162 ft | 297 kts | 111° |
| 2026-05-04 14:05 | -12.61254 | -75.95473 | 30165 ft | 298 kts | 111° |
| 2026-05-04 14:05 | -12.62097 | -75.93535 | 30169 ft | 299 kts | 111° |
| 2026-05-04 14:06 | -12.62942 | -75.91588 | 30222 ft | 300 kts | 111° |
| 2026-05-04 14:06 | -12.63778 | -75.89662 | 30225 ft | 300 kts | 111° |
| 2026-05-04 14:06 | -12.64639 | -75.87676 | 30221 ft | 301 kts | 111° |
| 2026-05-04 14:07 | -12.66330 | -75.83780 | 30227 ft | 301 kts | 111° |
| 2026-05-04 14:07 | -12.68028 | -75.79865 | 30188 ft | 300 kts | 111° |
| 2026-05-04 14:07 | -12.68876 | -75.77909 | 30254 ft | 300 kts | 112° |
| 2026-05-04 14:08 | -12.69722 | -75.75957 | 30252 ft | 300 kts | 112° |
| 2026-05-04 14:08 | -12.70565 | -75.74011 | 30253 ft | 299 kts | 112° |
| 2026-05-04 14:08 | -12.71407 | -75.72068 | 30251 ft | 299 kts | 112° |
| 2026-05-04 14:08 | -12.72249 | -75.70123 | 30247 ft | 298 kts | 112° |
| 2026-05-04 14:09 | -12.73927 | -75.66247 | 30250 ft | 297 kts | 112° |
| 2026-05-04 14:09 | -12.74767 | -75.64306 | 30242 ft | 298 kts | 112° |
| 2026-05-04 14:10 | -12.76451 | -75.60414 | 30305 ft | 299 kts | 112° |
| 2026-05-04 14:10 | -12.77294 | -75.58464 | 30307 ft | 300 kts | 112° |
| 2026-05-04 14:10 | -12.78140 | -75.56508 | 30308 ft | 300 kts | 112° |
| 2026-05-04 14:10 | -12.78985 | -75.54553 | 30306 ft | 300 kts | 112° |
| 2026-05-04 14:11 | -12.79832 | -75.52594 | 30309 ft | 300 kts | 112° |
| 2026-05-04 14:11 | -12.81522 | -75.48681 | 30342 ft | 300 kts | 112° |
| 2026-05-04 14:11 | -12.82367 | -75.46726 | 30343 ft | 300 kts | 112° |
| 2026-05-04 14:12 | -12.84058 | -75.42808 | 30342 ft | 300 kts | 112° |
| 2026-05-04 14:12 | -12.85744 | -75.38900 | 30342 ft | 300 kts | 112° |
| 2026-05-04 14:13 | -12.86586 | -75.36948 | 30341 ft | 299 kts | 112° |
| 2026-05-04 14:13 | -12.87426 | -75.35000 | 30380 ft | 299 kts | 112° |
| 2026-05-04 14:13 | -12.88269 | -75.33046 | 30381 ft | 299 kts | 112° |
| 2026-05-04 14:13 | -12.89110 | -75.31095 | 30380 ft | 299 kts | 112° |
| 2026-05-04 14:14 | -12.89951 | -75.29144 | 30381 ft | 299 kts | 112° |
| 2026-05-04 14:14 | -12.91634 | -75.25236 | 30379 ft | 299 kts | 112° |
| 2026-05-04 14:14 | -12.92474 | -75.23285 | 30380 ft | 299 kts | 112° |
| 2026-05-04 14:15 | -12.94143 | -75.19408 | 30404 ft | 299 kts | 112° |
| 2026-05-04 14:15 | -12.95806 | -75.15544 | 30403 ft | 299 kts | 112° |
| 2026-05-04 14:16 | -12.97483 | -75.11644 | 30405 ft | 299 kts | 112° |
| 2026-05-04 14:16 | -12.98321 | -75.09693 | 30404 ft | 299 kts | 112° |
| 2026-05-04 14:17 | -12.99999 | -75.05791 | 30427 ft | 299 kts | 112° |
| 2026-05-04 14:17 | -13.00837 | -75.03840 | 30425 ft | 298 kts | 112° |
| 2026-05-04 14:17 | -13.02507 | -74.99950 | 30426 ft | 298 kts | 112° |
| 2026-05-04 14:18 | -13.03342 | -74.98007 | 30423 ft | 297 kts | 112° |
| 2026-05-04 14:18 | -13.05006 | -74.94128 | 30425 ft | 297 kts | 112° |
| 2026-05-04 14:19 | -13.06672 | -74.90244 | 30423 ft | 298 kts | 112° |
| 2026-05-04 14:19 | -13.07506 | -74.88300 | 30422 ft | 298 kts | 112° |
| 2026-05-04 14:19 | -13.08338 | -74.86358 | 30421 ft | 298 kts | 112° |
| 2026-05-04 14:19 | -13.09170 | -74.84416 | 30422 ft | 297 kts | 112° |
| 2026-05-04 14:20 | -13.10003 | -74.82473 | 30423 ft | 298 kts | 112° |
| 2026-05-04 14:20 | -13.10836 | -74.80528 | 30423 ft | 298 kts | 112° |
| 2026-05-04 14:20 | -13.11669 | -74.78582 | 30424 ft | 298 kts | 112° |
| 2026-05-04 14:21 | -13.13334 | -74.74693 | 30440 ft | 298 kts | 112° |
| 2026-05-04 14:21 | -13.14167 | -74.72745 | 30441 ft | 298 kts | 112° |
| 2026-05-04 14:21 | -13.14999 | -74.70801 | 30438 ft | 298 kts | 112° |
| 2026-05-04 14:21 | -13.15833 | -74.68853 | 30439 ft | 298 kts | 112° |
| 2026-05-04 14:22 | -13.16665 | -74.66907 | 30437 ft | 298 kts | 112° |
| 2026-05-04 14:22 | -13.17487 | -74.64983 | 30447 ft | 298 kts | 112° |
| 2026-05-04 14:22 | -13.18330 | -74.63012 | 30459 ft | 298 kts | 112° |
| 2026-05-04 14:22 | -13.19162 | -74.61065 | 30462 ft | 298 kts | 112° |
| 2026-05-04 14:23 | -13.20814 | -74.57198 | 30460 ft | 298 kts | 112° |
| 2026-05-04 14:23 | -13.21644 | -74.55254 | 30465 ft | 297 kts | 112° |
| 2026-05-04 14:23 | -13.22474 | -74.53308 | 30464 ft | 297 kts | 112° |
| 2026-05-04 14:24 | -13.23303 | -74.51367 | 30469 ft | 297 kts | 112° |
| 2026-05-04 14:24 | -13.24131 | -74.49425 | 30477 ft | 297 kts | 112° |
| 2026-05-04 14:24 | -13.24960 | -74.47484 | 30482 ft | 297 kts | 112° |
| 2026-05-04 14:24 | -13.25786 | -74.45548 | 30491 ft | 296 kts | 112° |
| 2026-05-04 14:25 | -13.26612 | -74.43610 | 30491 ft | 297 kts | 112° |
| 2026-05-04 14:25 | -13.28267 | -74.39727 | 30495 ft | 297 kts | 112° |
| 2026-05-04 14:25 | -13.29095 | -74.37783 | 30496 ft | 297 kts | 112° |
| 2026-05-04 14:26 | -13.29921 | -74.35844 | 30501 ft | 297 kts | 112° |
| 2026-05-04 14:26 | -13.30747 | -74.33904 | 30499 ft | 296 kts | 112° |
| 2026-05-04 14:26 | -13.31572 | -74.31966 | 30498 ft | 296 kts | 112° |
| 2026-05-04 14:26 | -13.32397 | -74.30026 | 30496 ft | 296 kts | 112° |
| 2026-05-04 14:27 | -13.33222 | -74.28090 | 30499 ft | 296 kts | 112° |
| 2026-05-04 14:27 | -13.34047 | -74.26151 | 30498 ft | 296 kts | 112° |
| 2026-05-04 14:27 | -13.34870 | -74.24214 | 30496 ft | 296 kts | 112° |
| 2026-05-04 14:27 | -13.35694 | -74.22276 | 30499 ft | 296 kts | 112° |
| 2026-05-04 14:28 | -13.36520 | -74.20334 | 30487 ft | 297 kts | 112° |
| 2026-05-04 14:28 | -13.37347 | -74.18388 | 30486 ft | 298 kts | 112° |
| 2026-05-04 14:28 | -13.38175 | -74.16440 | 30485 ft | 298 kts | 112° |
| 2026-05-04 14:28 | -13.39004 | -74.14487 | 30487 ft | 298 kts | 112° |
| 2026-05-04 14:29 | -13.40661 | -74.10585 | 30486 ft | 298 kts | 112° |
| 2026-05-04 14:29 | -13.42324 | -74.06668 | 30451 ft | 299 kts | 112° |
| 2026-05-04 14:30 | -13.43154 | -74.04712 | 30451 ft | 299 kts | 112° |
| 2026-05-04 14:30 | -13.43982 | -74.02758 | 30451 ft | 299 kts | 112° |
| 2026-05-04 14:30 | -13.45643 | -73.98841 | 30447 ft | 299 kts | 112° |
| 2026-05-04 14:31 | -13.46473 | -73.96882 | 30445 ft | 298 kts | 112° |
| 2026-05-04 14:31 | -13.48129 | -73.92974 | 30436 ft | 299 kts | 112° |
| 2026-05-04 14:32 | -13.49786 | -73.89062 | 30435 ft | 299 kts | 112° |
| 2026-05-04 14:32 | -13.50615 | -73.87104 | 30435 ft | 299 kts | 112° |
| 2026-05-04 14:32 | -13.51444 | -73.85145 | 30432 ft | 299 kts | 112° |
| 2026-05-04 14:32 | -13.52272 | -73.83187 | 30428 ft | 298 kts | 112° |
| 2026-05-04 14:33 | -13.53096 | -73.81240 | 30431 ft | 298 kts | 112° |
| 2026-05-04 14:33 | -13.53922 | -73.79286 | 30428 ft | 298 kts | 112° |
| 2026-05-04 14:33 | -13.54738 | -73.77358 | 30407 ft | 298 kts | 112° |
| 2026-05-04 14:33 | -13.55565 | -73.75401 | 30409 ft | 299 kts | 112° |
| 2026-05-04 14:34 | -13.56392 | -73.73441 | 30408 ft | 299 kts | 112° |
| 2026-05-04 14:34 | -13.57221 | -73.71480 | 30409 ft | 299 kts | 112° |
| 2026-05-04 14:34 | -13.58049 | -73.69520 | 30413 ft | 299 kts | 112° |
| 2026-05-04 14:34 | -13.58876 | -73.67562 | 30431 ft | 299 kts | 112° |
| 2026-05-04 14:35 | -13.59704 | -73.65598 | 30447 ft | 299 kts | 112° |
| 2026-05-04 14:35 | -13.60531 | -73.63638 | 30444 ft | 299 kts | 112° |
| 2026-05-04 14:35 | -13.61359 | -73.61677 | 30463 ft | 299 kts | 112° |
| 2026-05-04 14:35 | -13.62186 | -73.59717 | 30479 ft | 299 kts | 112° |
| 2026-05-04 14:36 | -13.63012 | -73.57758 | 30497 ft | 299 kts | 112° |
| 2026-05-04 14:36 | -13.63838 | -73.55799 | 30512 ft | 298 kts | 112° |
| 2026-05-04 14:36 | -13.64663 | -73.53843 | 30523 ft | 298 kts | 112° |
| 2026-05-04 14:36 | -13.65208 | -73.52547 | 30535 ft | 298 kts | 112° |
| 2026-05-04 14:37 | -13.66032 | -73.50591 | 30555 ft | 299 kts | 112° |
| 2026-05-04 14:37 | -13.66858 | -73.48633 | 30572 ft | 299 kts | 112° |
| 2026-05-04 14:37 | -13.67685 | -73.46666 | 30587 ft | 299 kts | 112° |
| 2026-05-04 14:37 | -13.68511 | -73.44705 | 30607 ft | 299 kts | 112° |
| 2026-05-04 14:38 | -13.69338 | -73.42741 | 30614 ft | 300 kts | 112° |
| 2026-05-04 14:38 | -13.70136 | -73.40764 | 30609 ft | 298 kts | 106° |
| 2026-05-04 14:38 | -13.70521 | -73.38681 | 30616 ft | 296 kts | 91° |
| 2026-05-04 14:38 | -13.70388 | -73.36582 | 30624 ft | 294 kts | 76° |
| 2026-05-04 14:39 | -13.69759 | -73.34602 | 30628 ft | 290 kts | 61° |
| 2026-05-04 14:39 | -13.68820 | -73.32773 | 30621 ft | 290 kts | 59° |
| 2026-05-04 14:39 | -13.67868 | -73.30945 | 30626 ft | 290 kts | 59° |
| 2026-05-04 14:40 | -13.65934 | -73.27221 | 30076 ft | 300 kts | 59° |
| 2026-05-04 14:40 | -13.64948 | -73.25322 | 29671 ft | 302 kts | 60° |
| 2026-05-04 14:40 | -13.63956 | -73.23413 | 29275 ft | 303 kts | 60° |
| 2026-05-04 14:40 | -13.62965 | -73.21508 | 28873 ft | 300 kts | 60° |
| 2026-05-04 14:41 | -13.61988 | -73.19630 | 28477 ft | 296 kts | 60° |
| 2026-05-04 14:41 | -13.61022 | -73.17772 | 28084 ft | 294 kts | 61° |
| 2026-05-04 14:41 | -13.59109 | -73.14099 | 27314 ft | 288 kts | 60° |
| 2026-05-04 14:42 | -13.57242 | -73.10513 | 26477 ft | 281 kts | 61° |
| 2026-05-04 14:42 | -13.56325 | -73.08752 | 26117 ft | 278 kts | 62° |
| 2026-05-04 14:42 | -13.55414 | -73.07004 | 25770 ft | 276 kts | 62° |
| 2026-05-04 14:43 | -13.54510 | -73.05269 | 25430 ft | 275 kts | 62° |
| 2026-05-04 14:43 | -13.53609 | -73.03541 | 25095 ft | 273 kts | 63° |
| 2026-05-04 14:43 | -13.52714 | -73.01824 | 24763 ft | 272 kts | 63° |
| 2026-05-04 14:43 | -13.51823 | -73.00115 | 24434 ft | 271 kts | 63° |
| 2026-05-04 14:44 | -13.50937 | -72.98416 | 24108 ft | 269 kts | 63° |
| 2026-05-04 14:44 | -13.50054 | -72.96723 | 23764 ft | 269 kts | 63° |
| 2026-05-04 14:44 | -13.49172 | -72.95033 | 23379 ft | 268 kts | 62° |
| 2026-05-04 14:44 | -13.48292 | -72.93346 | 22994 ft | 268 kts | 63° |
| 2026-05-04 14:45 | -13.47415 | -72.91666 | 22607 ft | 266 kts | 63° |
| 2026-05-04 14:45 | -13.46542 | -72.89994 | 22247 ft | 265 kts | 63° |
| 2026-05-04 14:45 | -13.45677 | -72.88327 | 21879 ft | 263 kts | 65° |
| 2026-05-04 14:45 | -13.45121 | -72.86557 | 21516 ft | 258 kts | 82° |
| 2026-05-04 14:46 | -13.44982 | -72.84756 | 21165 ft | 250 kts | 87° |
| 2026-05-04 14:46 | -13.44880 | -72.82990 | 20806 ft | 246 kts | 86° |
| 2026-05-04 14:46 | -13.44775 | -72.81269 | 20463 ft | 244 kts | 86° |
| 2026-05-04 14:46 | -13.44671 | -72.79521 | 20338 ft | 241 kts | 87° |
| 2026-05-04 14:47 | -13.44567 | -72.77784 | 20343 ft | 247 kts | 86° |
| 2026-05-04 14:47 | -13.44460 | -72.76012 | 20344 ft | 249 kts | 86° |
| 2026-05-04 14:47 | -13.44353 | -72.74228 | 20341 ft | 251 kts | 86° |
| 2026-05-04 14:47 | -13.44246 | -72.72438 | 20343 ft | 252 kts | 86° |
| 2026-05-04 14:48 | -13.44139 | -72.70657 | 20345 ft | 253 kts | 86° |
| 2026-05-04 14:48 | -13.44029 | -72.68848 | 20335 ft | 254 kts | 86° |
| 2026-05-04 14:48 | -13.43920 | -72.67035 | 20328 ft | 256 kts | 86° |
| 2026-05-04 14:48 | -13.43811 | -72.65211 | 20344 ft | 255 kts | 86° |
| 2026-05-04 14:49 | -13.43699 | -72.63383 | 20321 ft | 256 kts | 86° |
| 2026-05-04 14:49 | -13.43589 | -72.61555 | 20327 ft | 257 kts | 86° |
| 2026-05-04 14:49 | -13.43478 | -72.59725 | 20322 ft | 256 kts | 86° |
| 2026-05-04 14:49 | -13.43367 | -72.57904 | 20318 ft | 256 kts | 87° |
| 2026-05-04 14:50 | -13.43257 | -72.56082 | 20326 ft | 256 kts | 86° |
| 2026-05-04 14:50 | -13.43145 | -72.54250 | 20316 ft | 256 kts | 87° |
| 2026-05-04 14:50 | -13.43035 | -72.52431 | 20317 ft | 256 kts | 86° |
| 2026-05-04 14:50 | -13.42925 | -72.50609 | 20316 ft | 255 kts | 86° |
| 2026-05-04 14:51 | -13.42813 | -72.48785 | 20321 ft | 256 kts | 86° |
| 2026-05-04 14:51 | -13.42702 | -72.46958 | 20315 ft | 256 kts | 86° |
| 2026-05-04 14:51 | -13.42591 | -72.45131 | 20321 ft | 257 kts | 87° |
| 2026-05-04 14:51 | -13.42480 | -72.43301 | 20316 ft | 256 kts | 86° |
| 2026-05-04 14:52 | -13.42365 | -72.41481 | 20318 ft | 256 kts | 86° |
| 2026-05-04 14:52 | -13.42255 | -72.39660 | 20318 ft | 255 kts | 86° |
| 2026-05-04 14:52 | -13.42144 | -72.37848 | 20312 ft | 254 kts | 86° |
| 2026-05-04 14:52 | -13.42033 | -72.36038 | 20304 ft | 254 kts | 87° |
| 2026-05-04 14:53 | -13.41941 | -72.34228 | 20308 ft | 253 kts | 91° |
| 2026-05-04 14:53 | -13.42246 | -72.32453 | 20313 ft | 253 kts | 107° |
| 2026-05-04 14:53 | -13.42787 | -72.30713 | 20165 ft | 260 kts | 107° |
| 2026-05-04 14:53 | -13.43331 | -72.28956 | 19941 ft | 255 kts | 107° |
| 2026-05-04 14:54 | -13.43858 | -72.27244 | 19711 ft | 248 kts | 107° |
| 2026-05-04 14:54 | -13.44372 | -72.25567 | 19482 ft | 244 kts | 107° |
| 2026-05-04 14:54 | -13.44883 | -72.23909 | 19247 ft | 243 kts | 106° |
| 2026-05-04 14:54 | -13.45388 | -72.22266 | 19017 ft | 241 kts | 106° |
| 2026-05-04 14:55 | -13.45892 | -72.20632 | 18796 ft | 239 kts | 106° |
| 2026-05-04 14:55 | -13.46392 | -72.19007 | 18567 ft | 238 kts | 106° |
| 2026-05-04 14:55 | -13.46888 | -72.17390 | 18434 ft | 237 kts | 106° |
| 2026-05-04 14:55 | -13.47385 | -72.15770 | 18142 ft | 238 kts | 106° |
| 2026-05-04 14:56 | -13.47880 | -72.14142 | 17861 ft | 239 kts | 106° |
| 2026-05-04 14:56 | -13.48380 | -72.12505 | 17580 ft | 241 kts | 106° |
| 2026-05-04 14:56 | -13.48880 | -72.10861 | 17307 ft | 242 kts | 106° |
| 2026-05-04 14:56 | -13.49386 | -72.09202 | 17024 ft | 240 kts | 106° |
| 2026-05-04 14:57 | -13.49873 | -72.07610 | 16743 ft | 227 kts | 107° |
| 2026-05-04 14:57 | -13.50337 | -72.06090 | 16456 ft | 218 kts | 107° |
| 2026-05-04 14:57 | -13.50809 | -72.04645 | 16253 ft | 208 kts | 109° |
| 2026-05-04 14:57 | -13.51311 | -72.03297 | 16036 ft | 202 kts | 111° |
| 2026-05-04 14:58 | -13.51837 | -72.01964 | 15707 ft | 203 kts | 111° |
| 2026-05-04 14:58 | -13.52385 | -72.00618 | 15325 ft | 203 kts | 116° |
| 2026-05-04 14:58 | -13.53165 | -71.99388 | 15118 ft | 210 kts | 128° |
| 2026-05-04 14:58 | -13.54104 | -71.98273 | 15064 ft | 204 kts | 132° |
| 2026-05-04 14:59 | -13.55066 | -71.97226 | 15023 ft | 198 kts | 133° |
| 2026-05-04 14:59 | -13.56006 | -71.96196 | 15102 ft | 204 kts | 132° |
| 2026-05-04 14:59 | -13.58015 | -71.93936 | 15540 ft | 220 kts | 134° |
| 2026-05-04 15:00 | -13.59129 | -71.92824 | 15702 ft | 225 kts | 135° |
| 2026-05-04 15:00 | -13.60320 | -71.91767 | 15952 ft | 228 kts | 142° |
| 2026-05-04 15:00 | -13.61661 | -71.90859 | 16086 ft | 234 kts | 147° |
| 2026-05-04 15:01 | -13.64405 | -71.88985 | 16307 ft | 239 kts | 143° |
| 2026-05-04 15:01 | -13.65799 | -71.88033 | 16320 ft | 242 kts | 146° |
| 2026-05-04 15:01 | -13.67230 | -71.87105 | 16360 ft | 245 kts | 146° |
| 2026-05-04 15:01 | -13.68677 | -71.86173 | 16417 ft | 245 kts | 147° |
| 2026-05-04 15:02 | -13.70127 | -71.85282 | 16546 ft | 242 kts | 144° |
| 2026-05-04 15:02 | -13.71440 | -71.84191 | 16594 ft | 242 kts | 135° |
| 2026-05-04 15:02 | -13.72529 | -71.82901 | 16768 ft | 238 kts | 122° |
| 2026-05-04 15:02 | -13.73258 | -71.81380 | 16884 ft | 239 kts | 106° |
| 2026-05-04 15:03 | -13.73551 | -71.79698 | 16923 ft | 240 kts | 93° |
| 2026-05-04 15:03 | -13.73585 | -71.77967 | 16917 ft | 243 kts | 88° |
| 2026-05-04 15:03 | -13.73379 | -71.76252 | 17022 ft | 240 kts | 75° |
| 2026-05-04 15:03 | -13.72751 | -71.74668 | 17075 ft | 241 kts | 60° |
| 2026-05-04 15:04 | -13.71791 | -71.73248 | 17134 ft | 243 kts | 50° |
| 2026-05-04 15:04 | -13.70608 | -71.72019 | 17060 ft | 238 kts | 42° |
| 2026-05-04 15:04 | -13.69352 | -71.70939 | 16772 ft | 234 kts | 39° |
| 2026-05-04 15:04 | -13.67969 | -71.70069 | 16501 ft | 234 kts | 23° |
| 2026-05-04 15:05 | -13.66358 | -71.69771 | 16225 ft | 240 kts | 360° |
| 2026-05-04 15:05 | -13.64700 | -71.70068 | 15866 ft | 247 kts | 342° |
| 2026-05-04 15:05 | -13.63172 | -71.70873 | 15801 ft | 242 kts | 325° |
| 2026-05-04 15:05 | -13.61986 | -71.72003 | 15599 ft | 234 kts | 311° |
| 2026-05-04 15:06 | -13.61029 | -71.73341 | 15358 ft | 230 kts | 304° |
| 2026-05-04 15:06 | -13.60142 | -71.74702 | 15078 ft | 228 kts | 304° |
| 2026-05-04 15:06 | -13.59316 | -71.76056 | 14876 ft | 220 kts | 300° |
| 2026-05-04 15:07 | -13.57900 | -71.78761 | 14442 ft | 214 kts | 298° |
| 2026-05-04 15:07 | -13.57211 | -71.80102 | 14181 ft | 212 kts | 297° |
| 2026-05-04 15:07 | -13.56549 | -71.81421 | 13873 ft | 202 kts | 295° |
| 2026-05-04 15:07 | -13.56018 | -71.82731 | 13443 ft | 195 kts | 289° |
| 2026-05-04 15:08 | -13.55585 | -71.83974 | 13178 ft | 173 kts | 290° |
| 2026-05-04 15:08 | -13.55200 | -71.85105 | 12747 ft | 166 kts | 289° |
| 2026-05-04 15:08 | -13.54783 | -71.86208 | 12341 ft | 166 kts | 291° |
| 2026-05-04 15:08 | -13.54393 | -71.87340 | 11992 ft | 169 kts | 287° |
| 2026-05-04 15:09 | -13.54119 | -71.88497 | 11641 ft | 164 kts | 278° |
| 2026-05-04 15:09 | -13.54013 | -71.89647 | 11250 ft | 159 kts | 274° |
| 2026-05-04 15:09 | -13.53895 | -71.90742 | 10945 ft | 149 kts | 277° |
| 2026-05-04 15:10 | -13.53688 | -71.92711 | 10720 ft | 131 kts | 276° |
| 2026-05-04 15:10 | -13.53607 | -71.93554 | 10749 ft | 91 kts | 277° |
| 2026-05-04 15:10 | -13.53591 | -71.93991 | 10769 ft | 11 kts | 246° |
| 2026-05-04 15:11 | -13.53617 | -71.94045 | 10772 ft | 10 kts | 218° |
| 2026-05-04 15:11 | -13.53661 | -71.94017 | 10771 ft | 11 kts | 109° |
| 2026-05-04 15:11 | -13.53695 | -71.93985 | 10770 ft | 4 kts | 184° |
| 2026-05-04 15:11 | -13.53698 | -71.93986 | 10770 ft | 0 kts | 184° |
| 2026-05-04 15:12 | -13.53719 | -71.93974 | 10769 ft | 5 kts | 99° |
| 2026-05-04 15:12 | -13.53719 | -71.93973 | 10769 ft | 0 kts | 90° |